Time;durP1;ratioP1;P1;durP2;ratioP2;P2;SDS_P1;SDS_P2;PMS_P1;PMS_P2;Temp;Humidity;BMP_temperature;BMP_pressure;BME280_temperature;BME280_humidity;BME280_pressure;Samples;Min_cycle;Max_cycle;Signal;HPM_P1;HPM_P2
2022/09/01 00:01:25;;;;;;;1.60;0.68;;;;;;;;;;4975312;28;20030;-72
2022/09/01 00:03:52;;;;;;;1.30;0.80;;;;;;;;;;4974338;28;20035;-72
2022/09/01 00:06:21;;;;;;;3.42;1.40;;;;;;;;;;4976610;28;20046;-72
2022/09/01 00:08:54;;;;;;;3.25;1.38;;;;;;;;;;4973203;28;20034;-72
2022/09/01 00:11:21;;;;;;;5.35;1.52;;;;;;;;;;4980002;28;20061;-73
2022/09/01 00:13:48;;;;;;;2.67;0.90;;;;;;;;;;4978497;28;20033;-72
2022/09/01 00:16:16;;;;;;;1.90;1.15;;;;;;;;;;4973035;28;20071;-72
2022/09/01 00:18:48;;;;;;;2.40;0.88;;;;;;;;;;4973079;28;20100;-72
2022/09/01 00:21:14;;;;;;;2.22;0.90;;;;;;;;;;4979080;28;20031;-71
2022/09/01 00:23:40;;;;;;;3.58;1.30;;;;;;;;;;4978638;28;20035;-71
2022/09/01 00:26:06;;;;;;;5.75;1.33;;;;;;;;;;4975015;28;20140;-73
2022/09/01 00:28:33;;;;;;;3.80;0.90;;;;;;;;;;4975200;28;20034;-72
2022/09/01 00:30:59;;;;;;;2.40;0.90;;;;;;;;;;4956381;28;20052;-72
2022/09/01 00:33:26;;;;;;;4.47;1.42;;;;;;;;;;4976920;28;20034;-73
2022/09/01 00:35:53;;;;;;;4.82;1.00;;;;;;;;;;4976731;28;20107;-72
2022/09/01 00:38:19;;;;;;;1.77;0.90;;;;;;;;;;4980177;28;20117;-72
2022/09/01 00:40:45;;;;;;;4.43;0.93;;;;;;;;;;4976433;28;20115;-73
2022/09/01 00:43:16;;;;;;;2.97;1.05;;;;;;;;;;4975490;28;20078;-72
2022/09/01 00:45:42;;;;;;;3.50;1.63;;;;;;;;;;4972102;28;20049;-74
2022/09/01 00:48:09;;;;;;;1.90;0.80;;;;;;;;;;4974848;28;20054;-72
2022/09/01 00:50:36;;;;;;;2.33;0.80;;;;;;;;;;4976507;28;20040;-73
2022/09/01 00:53:04;;;;;;;1.80;0.90;;;;;;;;;;4973503;28;20073;-73
2022/09/01 00:55:32;;;;;;;4.10;1.20;;;;;;;;;;4976722;28;20062;-73
2022/09/01 00:57:59;;;;;;;3.13;0.93;;;;;;;;;;4977882;28;20033;-72
2022/09/01 01:00:27;;;;;;;3.00;1.00;;;;;;;;;;4977204;28;20038;-72
2022/09/01 01:02:57;;;;;;;3.30;1.20;;;;;;;;;;4974042;28;20093;-72
2022/09/01 01:05:26;;;;;;;3.00;1.05;;;;;;;;;;4972269;28;20148;-72
2022/09/01 01:07:54;;;;;;;1.85;0.80;;;;;;;;;;4976749;28;20110;-73
2022/09/01 01:10:25;;;;;;;4.05;1.20;;;;;;;;;;4957248;28;20548;-73
2022/09/01 01:12:51;;;;;;;2.72;1.13;;;;;;;;;;4974383;28;20488;-73
2022/09/01 01:15:18;;;;;;;2.67;1.17;;;;;;;;;;4975744;28;20031;-74
2022/09/01 01:17:44;;;;;;;4.05;1.00;;;;;;;;;;4971472;28;20030;-73
2022/09/01 01:23:04;;;;;;;2.60;1.08;;;;;;;;;;4953562;28;20041;-73
2022/09/01 01:25:36;;;;;;;2.45;1.20;;;;;;;;;;4973424;28;20038;-73
2022/09/01 01:28:17;;;;;;;3.65;1.40;;;;;;;;;;4975007;28;20586;-72
2022/09/01 01:30:48;;;;;;;2.80;1.00;;;;;;;;;;4975479;28;20038;-71
2022/09/01 01:33:14;;;;;;;2.67;1.00;;;;;;;;;;4975954;28;20035;-72
2022/09/01 01:35:41;;;;;;;2.75;1.00;;;;;;;;;;4971295;28;20062;-71
2022/09/01 01:38:07;;;;;;;3.20;0.65;;;;;;;;;;4976136;28;20105;-72
2022/09/01 01:40:33;;;;;;;2.88;1.05;;;;;;;;;;4973438;28;20114;-72
2022/09/01 01:43:02;;;;;;;1.70;0.60;;;;;;;;;;4972854;28;20023;-72
2022/09/01 01:45:28;;;;;;;3.00;1.40;;;;;;;;;;4974945;28;20039;-72
2022/09/01 01:47:55;;;;;;;3.45;1.10;;;;;;;;;;4979016;28;20511;-72
2022/09/01 01:50:30;;;;;;;3.15;1.08;;;;;;;;;;4980302;28;20492;-72
2022/09/01 01:52:58;;;;;;;3.55;1.20;;;;;;;;;;4975431;28;20038;-72
2022/09/01 01:55:27;;;;;;;1.95;0.80;;;;;;;;;;4975740;28;20097;-72
2022/09/01 01:57:55;;;;;;;3.97;0.70;;;;;;;;;;4973909;28;20057;-72
2022/09/01 02:00:22;;;;;;;2.80;0.98;;;;;;;;;;4969804;28;20037;-72
2022/09/01 02:02:52;;;;;;;4.05;1.23;;;;;;;;;;4976431;28;20034;-72
2022/09/01 02:05:21;;;;;;;;;;;;;;;;;;4975620;28;20089;-72
2022/09/01 02:07:49;;;;;;;3.85;1.15;;;;;;;;;;4971582;28;20387;-72
2022/09/01 02:10:15;;;;;;;2.90;1.27;;;;;;;;;;4974058;28;20110;-72
2022/09/01 02:12:41;;;;;;;3.03;1.00;;;;;;;;;;4974926;28;20019;-72
2022/09/01 02:15:08;;;;;;;1.75;0.77;;;;;;;;;;4971094;28;20397;-72
2022/09/01 02:17:34;;;;;;;2.63;0.70;;;;;;;;;;4975777;28;20639;-72
2022/09/01 02:20:00;;;;;;;1.63;0.80;;;;;;;;;;4979346;28;20477;-72
2022/09/01 02:22:27;;;;;;;1.65;0.68;;;;;;;;;;4978875;28;20031;-72
2022/09/01 02:24:54;;;;;;;2.67;1.00;;;;;;;;;;4982253;28;20046;-72
2022/09/01 02:27:24;;;;;;;2.05;0.80;;;;;;;;;;4980757;28;20031;-71
2022/09/01 02:29:54;;;;;;;1.63;0.88;;;;;;;;;;4963677;28;20042;-72
2022/09/01 02:32:20;;;;;;;1.75;0.70;;;;;;;;;;4976317;28;20094;-72
2022/09/01 02:34:48;;;;;;;2.40;0.88;;;;;;;;;;4980828;28;20374;-72
2022/09/01 02:37:15;;;;;;;2.45;0.90;;;;;;;;;;4975555;28;20105;-72
2022/09/01 02:39:41;;;;;;;2.28;0.70;;;;;;;;;;4979725;28;20031;-73
2022/09/01 02:42:07;;;;;;;2.50;0.90;;;;;;;;;;4978263;28;20514;-72
2022/09/01 02:44:33;;;;;;;3.05;0.88;;;;;;;;;;4977488;28;20039;-74
2022/09/01 02:47:00;;;;;;;4.15;0.88;;;;;;;;;;4976907;28;20417;-72
2022/09/01 02:49:28;;;;;;;2.60;0.90;;;;;;;;;;4977048;28;20496;-72
2022/09/01 02:51:58;;;;;;;5.43;1.15;;;;;;;;;;4976118;28;20031;-72
2022/09/01 02:54:24;;;;;;;2.92;0.98;;;;;;;;;;4977615;28;20478;-72
2022/09/01 02:56:53;;;;;;;2.33;0.82;;;;;;;;;;4977260;28;20105;-74
2022/09/01 02:59:20;;;;;;;2.88;1.08;;;;;;;;;;4978635;28;20026;-72
2022/09/01 03:01:46;;;;;;;4.55;1.23;;;;;;;;;;4976866;28;20492;-73
2022/09/01 03:04:13;;;;;;;4.90;1.00;;;;;;;;;;4976892;28;20117;-73
2022/09/01 03:06:40;;;;;;;2.83;1.08;;;;;;;;;;4979171;28;20057;-73
2022/09/01 03:09:07;;;;;;;2.35;1.23;;;;;;;;;;4976035;28;20571;-74
2022/09/01 03:11:34;;;;;;;2.10;0.70;;;;;;;;;;4977462;28;20061;-73
2022/09/01 03:14:01;;;;;;;4.82;0.98;;;;;;;;;;4979075;28;20038;-73
2022/09/01 03:16:29;;;;;;;3.17;1.13;;;;;;;;;;4977593;28;20062;-73
2022/09/01 03:18:55;;;;;;;4.25;1.38;;;;;;;;;;4981738;28;20027;-73
2022/09/01 03:21:22;;;;;;;2.63;0.85;;;;;;;;;;4977893;28;20476;-73
2022/09/01 03:23:48;;;;;;;5.03;1.30;;;;;;;;;;4977919;28;20644;-72
2022/09/01 03:26:17;;;;;;;5.97;1.80;;;;;;;;;;4976761;28;20540;-72
2022/09/01 03:28:45;;;;;;;5.38;1.00;;;;;;;;;;4974312;28;20113;-72
2022/09/01 03:31:11;;;;;;;2.78;1.35;;;;;;;;;;4976672;28;20065;-72
2022/09/01 03:33:37;;;;;;;2.55;1.20;;;;;;;;;;4975237;28;20050;-72
2022/09/01 03:36:04;;;;;;;2.50;1.02;;;;;;;;;;4977736;28;20037;-73
2022/09/01 03:38:31;;;;;;;4.07;1.30;;;;;;;;;;4977971;28;20121;-72
2022/09/01 03:41:02;;;;;;;1.50;0.70;;;;;;;;;;4978158;28;20579;-71
2022/09/01 03:43:29;;;;;;;2.67;0.85;;;;;;;;;;4975868;28;20511;-71
2022/09/01 03:45:59;;;;;;;3.83;1.60;;;;;;;;;;4975847;28;20065;-73
2022/09/01 03:48:27;;;;;;;2.30;0.93;;;;;;;;;;4976360;28;20060;-72
2022/09/01 03:50:53;;;;;;;4.40;0.80;;;;;;;;;;4975307;28;20033;-71
2022/09/01 03:53:21;;;;;;;3.25;1.40;;;;;;;;;;4975848;28;20027;-72
2022/09/01 03:55:48;;;;;;;2.25;1.10;;;;;;;;;;4972654;28;20469;-72
2022/09/01 03:58:19;;;;;;;2.78;1.23;;;;;;;;;;4976345;28;20050;-72
2022/09/01 04:00:48;;;;;;;2.47;1.00;;;;;;;;;;4977449;28;20089;-72
2022/09/01 04:03:20;;;;;;;1.65;0.80;;;;;;;;;;4973190;28;20030;-72
2022/09/01 04:05:48;;;;;;;3.67;1.08;;;;;;;;;;4975191;28;20053;-72
2022/09/01 04:08:14;;;;;;;3.33;1.40;;;;;;;;;;4975566;28;20807;-71
2022/09/01 04:10:51;;;;;;;2.22;0.95;;;;;;;;;;4976723;28;20031;-72
2022/09/01 04:13:18;;;;;;;3.35;1.20;;;;;;;;;;4974181;28;20054;-72
2022/09/01 04:15:45;;;;;;;1.83;0.70;;;;;;;;;;4978081;28;20030;-72
2022/09/01 04:18:19;;;;;;;2.65;0.98;;;;;;;;;;4979345;28;20027;-72
2022/09/01 04:20:49;;;;;;;5.18;1.08;;;;;;;;;;4977045;28;20038;-72
2022/09/01 04:23:19;;;;;;;3.55;1.00;;;;;;;;;;4977547;28;20100;-71
2022/09/01 04:25:45;;;;;;;3.53;1.20;;;;;;;;;;4979052;28;20038;-72
2022/09/01 04:28:21;;;;;;;2.13;0.90;;;;;;;;;;4974725;28;20034;-72
2022/09/01 04:30:49;;;;;;;1.48;0.63;;;;;;;;;;4981018;28;20053;-72
2022/09/01 04:33:16;;;;;;;3.22;1.10;;;;;;;;;;4978190;28;20034;-72
2022/09/01 04:35:42;;;;;;;2.17;1.10;;;;;;;;;;4974688;28;20115;-71
2022/09/01 04:38:08;;;;;;;3.90;0.90;;;;;;;;;;4976569;28;20027;-71
2022/09/01 04:40:41;;;;;;;6.82;1.50;;;;;;;;;;4978291;28;20081;-72
2022/09/01 04:43:08;;;;;;;4.25;1.15;;;;;;;;;;4977520;28;20030;-72
2022/09/01 04:45:35;;;;;;;2.78;0.95;;;;;;;;;;4977169;28;20038;-73
2022/09/01 04:48:01;;;;;;;2.70;0.85;;;;;;;;;;4970736;28;20080;-73
2022/09/01 04:50:29;;;;;;;3.58;1.48;;;;;;;;;;4975677;28;20346;-71
2022/09/01 04:52:59;;;;;;;2.35;0.90;;;;;;;;;;4972979;28;20113;-71
2022/09/01 04:55:27;;;;;;;2.60;0.90;;;;;;;;;;4972341;28;20053;-73
2022/09/01 04:57:53;;;;;;;1.27;0.70;;;;;;;;;;4975833;28;20034;-72
2022/09/01 05:00:23;;;;;;;3.33;0.80;;;;;;;;;;4974177;28;20073;-72
2022/09/01 05:02:53;;;;;;;2.70;1.05;;;;;;;;;;4974311;28;20049;-72
2022/09/01 05:05:23;;;;;;;2.35;1.15;;;;;;;;;;4954781;28;20078;-72
2022/09/01 05:07:51;;;;;;;2.95;0.80;;;;;;;;;;4975870;28;20084;-71
2022/09/01 05:10:19;;;;;;;1.70;0.80;;;;;;;;;;4976555;28;20039;-72
2022/09/01 05:12:45;;;;;;;3.08;1.00;;;;;;;;;;4973126;28;20031;-72
2022/09/01 05:15:12;;;;;;;4.93;1.42;;;;;;;;;;4973060;28;20027;-71
2022/09/01 05:17:39;;;;;;;2.78;1.00;;;;;;;;;;4976783;28;20034;-72
2022/09/01 05:20:06;;;;;;;3.45;1.17;;;;;;;;;;4975829;28;20084;-72
2022/09/01 05:22:32;;;;;;;2.13;1.00;;;;;;;;;;4975369;28;20410;-72
2022/09/01 05:25:10;;;;;;;4.93;1.27;;;;;;;;;;4977915;28;20482;-72
2022/09/01 05:27:38;;;;;;;3.60;1.30;;;;;;;;;;4976103;28;20026;-72
2022/09/01 05:30:07;;;;;;;2.85;0.85;;;;;;;;;;4972616;28;20034;-71
2022/09/01 05:32:34;;;;;;;4.28;1.02;;;;;;;;;;4975128;28;20035;-72
2022/09/01 05:35:01;;;;;;;3.65;1.02;;;;;;;;;;4976609;28;20527;-71
2022/09/01 05:37:29;;;;;;;4.75;1.40;;;;;;;;;;4978549;28;20030;-72
2022/09/01 05:39:55;;;;;;;2.53;1.20;;;;;;;;;;4974266;28;20037;-72
2022/09/01 05:42:21;;;;;;;3.17;1.30;;;;;;;;;;4973626;28;20029;-72
2022/09/01 05:44:49;;;;;;;4.22;1.50;;;;;;;;;;4973074;28;20138;-72
2022/09/01 05:47:15;;;;;;;4.15;1.20;;;;;;;;;;4976353;28;20086;-72
2022/09/01 05:49:41;;;;;;;3.60;0.95;;;;;;;;;;4972733;28;20034;-72
2022/09/01 05:52:08;;;;;;;2.75;1.27;;;;;;;;;;4981794;28;21044;-72
2022/09/01 05:54:34;;;;;;;3.20;1.30;;;;;;;;;;4981464;28;20046;-71
2022/09/01 05:57:02;;;;;;;2.25;1.17;;;;;;;;;;4980999;28;20465;-71
2022/09/01 05:59:32;;;;;;;3.08;0.80;;;;;;;;;;4982365;28;20031;-72
2022/09/01 06:01:59;;;;;;;2.60;0.98;;;;;;;;;;4982754;28;20030;-71
2022/09/01 06:04:26;;;;;;;3.42;1.23;;;;;;;;;;4979826;28;20057;-71
2022/09/01 06:06:55;;;;;;;2.72;0.70;;;;;;;;;;4984423;28;20473;-72
2022/09/01 06:09:22;;;;;;;3.63;0.90;;;;;;;;;;4986868;28;20033;-71
2022/09/01 06:11:48;;;;;;;4.90;0.90;;;;;;;;;;4980146;28;20109;-71
2022/09/01 06:14:16;;;;;;;2.10;0.63;;;;;;;;;;4982070;28;20033;-71
2022/09/01 06:16:43;;;;;;;3.63;0.80;;;;;;;;;;4980702;28;20058;-72
2022/09/01 06:19:09;;;;;;;1.80;0.60;;;;;;;;;;4984692;28;20509;-71
2022/09/01 06:21:38;;;;;;;1.20;0.52;;;;;;;;;;4984871;28;20018;-71
2022/09/01 06:24:05;;;;;;;1.35;0.60;;;;;;;;;;4986063;28;20038;-72
2022/09/01 06:26:33;;;;;;;2.20;0.70;;;;;;;;;;4983501;28;20046;-71
2022/09/01 06:29:02;;;;;;;2.47;0.80;;;;;;;;;;4983429;28;20539;-72
2022/09/01 06:31:32;;;;;;;2.50;0.60;;;;;;;;;;4963571;28;20038;-72
2022/09/01 06:33:59;;;;;;;1.50;0.60;;;;;;;;;;4980625;28;20073;-72
2022/09/01 06:36:25;;;;;;;2.88;0.80;;;;;;;;;;4983190;28;20665;-72
2022/09/01 06:38:51;;;;;;;2.20;0.60;;;;;;;;;;4982777;28;20033;-72
2022/09/01 06:41:18;;;;;;;1.30;0.50;;;;;;;;;;4983335;28;20029;-72
2022/09/01 06:43:48;;;;;;;2.05;0.65;;;;;;;;;;4982935;28;20066;-72
2022/09/01 06:46:15;;;;;;;1.70;0.70;;;;;;;;;;4982055;28;20037;-71
2022/09/01 06:48:45;;;;;;;1.50;0.70;;;;;;;;;;4982344;28;20429;-71
2022/09/01 06:51:19;;;;;;;5.57;0.90;;;;;;;;;;4982640;28;20035;-72
2022/09/01 06:53:49;;;;;;;3.38;0.88;;;;;;;;;;4979047;28;20054;-71
2022/09/01 06:56:17;;;;;;;1.63;0.70;;;;;;;;;;4981139;28;20026;-71
2022/09/01 06:58:47;;;;;;;2.40;0.70;;;;;;;;;;4982405;28;20061;-71
2022/09/01 07:01:16;;;;;;;2.17;0.80;;;;;;;;;;4979646;28;20081;-72
2022/09/01 07:03:43;;;;;;;1.65;0.70;;;;;;;;;;4974730;28;20537;-71
2022/09/01 07:06:10;;;;;;;2.70;0.90;;;;;;;;;;4979128;28;20037;-71
2022/09/01 07:08:38;;;;;;;2.13;0.80;;;;;;;;;;4976782;28;20031;-70
2022/09/01 07:11:07;;;;;;;1.88;0.80;;;;;;;;;;4980080;28;20488;-70
2022/09/01 07:13:34;;;;;;;2.28;0.80;;;;;;;;;;4979656;28;20030;-71
2022/09/01 07:16:05;;;;;;;3.15;1.20;;;;;;;;;;4977091;28;20034;-70
2022/09/01 07:18:31;;;;;;;3.00;0.80;;;;;;;;;;4988311;28;20101;-70
2022/09/01 07:20:58;;;;;;;6.18;1.30;;;;;;;;;;4982255;28;20058;-72
2022/09/01 07:23:24;;;;;;;4.10;0.80;;;;;;;;;;4978230;28;20023;-72
2022/09/01 07:25:54;;;;;;;2.95;0.80;;;;;;;;;;4979852;28;20077;-70
2022/09/01 07:28:22;;;;;;;2.53;0.90;;;;;;;;;;4972455;28;20018;-71
2022/09/01 07:30:49;;;;;;;2.17;0.90;;;;;;;;;;4978109;28;20375;-71
2022/09/01 07:33:19;;;;;;;2.17;0.70;;;;;;;;;;4975524;28;20034;-71
2022/09/01 07:35:45;;;;;;;4.97;0.98;;;;;;;;;;4974863;28;20105;-71
2022/09/01 07:38:12;;;;;;;2.15;0.70;;;;;;;;;;4975705;28;20164;-73
2022/09/01 07:40:39;;;;;;;2.13;0.82;;;;;;;;;;4978692;28;20069;-72
2022/09/01 07:43:13;;;;;;;4.03;1.20;;;;;;;;;;4973787;28;20483;-72
2022/09/01 07:45:42;;;;;;;5.38;0.98;;;;;;;;;;4977291;28;20096;-73
2022/09/01 07:48:08;;;;;;;2.97;1.00;;;;;;;;;;4976122;28;20429;-74
2022/09/01 07:50:43;;;;;;;6.30;1.00;;;;;;;;;;4975351;28;20080;-76
2022/09/01 07:53:11;;;;;;;5.57;1.42;;;;;;;;;;4977169;28;20035;-73
2022/09/01 07:55:40;;;;;;;9.75;1.20;;;;;;;;;;4977217;28;20039;-74
2022/09/01 07:58:06;;;;;;;3.22;1.05;;;;;;;;;;4976938;28;20031;-74
2022/09/01 08:00:33;;;;;;;3.55;0.90;;;;;;;;;;4976538;28;20062;-74
2022/09/01 08:02:59;;;;;;;4.57;1.48;;;;;;;;;;4975611;28;20122;-72
2022/09/01 08:05:25;;;;;;;5.45;1.20;;;;;;;;;;4977776;28;20093;-71
2022/09/01 08:07:52;;;;;;;4.43;1.35;;;;;;;;;;4973364;28;20019;-71
2022/09/01 08:10:18;;;;;;;6.30;1.15;;;;;;;;;;4978024;28;20030;-68
2022/09/01 08:12:44;;;;;;;4.57;0.90;;;;;;;;;;4971443;28;20014;-73
2022/09/01 08:15:11;;;;;;;7.65;1.05;;;;;;;;;;4977613;28;20019;-72
2022/09/01 08:17:39;;;;;;;6.13;1.50;;;;;;;;;;4975174;28;20023;-72
2022/09/01 08:20:08;;;;;;;4.97;1.10;;;;;;;;;;4977232;28;20105;-72
2022/09/01 08:22:36;;;;;;;4.28;1.40;;;;;;;;;;4973200;28;20374;-72
2022/09/01 08:25:04;;;;;;;6.43;1.25;;;;;;;;;;4972823;28;20113;-71
2022/09/01 08:27:31;;;;;;;4.10;1.13;;;;;;;;;;4974331;28;20620;-71
2022/09/01 08:29:59;;;;;;;5.35;1.38;;;;;;;;;;4975036;28;20023;-71
2022/09/01 08:32:25;;;;;;;3.42;1.10;;;;;;;;;;4974515;28;20031;-74
2022/09/01 08:34:51;;;;;;;8.55;1.65;;;;;;;;;;4972738;28;20026;-71
2022/09/01 08:37:18;;;;;;;4.10;1.08;;;;;;;;;;4977709;28;20145;-72
2022/09/01 08:39:45;;;;;;;4.90;0.90;;;;;;;;;;4974791;28;20033;-73
2022/09/01 08:42:21;;;;;;;3.20;1.08;;;;;;;;;;4980096;28;20041;-73
2022/09/01 08:44:50;;;;;;;3.33;1.35;;;;;;;;;;4976434;28;20389;-74
2022/09/01 08:47:18;;;;;;;2.20;1.10;;;;;;;;;;4974066;28;20058;-76
2022/09/01 08:49:45;;;;;;;6.30;1.33;;;;;;;;;;4976045;28;20421;-72
2022/09/01 08:52:17;;;;;;;2.20;0.93;;;;;;;;;;4976007;28;20025;-74
2022/09/01 08:54:55;;;;;;;4.78;1.23;;;;;;;;;;4974962;28;21499;-73
2022/09/01 08:57:29;;;;;;;4.57;1.27;;;;;;;;;;4957533;28;20034;-75
2022/09/01 08:59:56;;;;;;;4.85;1.08;;;;;;;;;;4981014;28;20121;-76
2022/09/01 09:02:22;;;;;;;2.50;0.82;;;;;;;;;;4974222;28;20436;-75
2022/09/01 09:05:02;;;;;;;4.30;1.02;;;;;;;;;;4974864;28;20121;-76
2022/09/01 09:07:43;;;;;;;2.83;0.80;;;;;;;;;;4980535;28;20038;-72
2022/09/01 09:10:29;;;;;;;4.22;1.30;;;;;;;;;;4976654;28;20089;-75
2022/09/01 09:12:58;;;;;;;3.58;0.93;;;;;;;;;;4980629;28;20058;-76
2022/09/01 09:15:38;;;;;;;2.95;0.98;;;;;;;;;;4958571;28;20039;-75
2022/09/01 09:18:31;;;;;;;5.47;0.70;;;;;;;;;;4975388;28;20429;-75
2022/09/01 09:21:03;;;;;;;2.63;0.63;;;;;;;;;;4954014;28;20043;-75
2022/09/01 09:23:35;;;;;;;5.43;1.00;;;;;;;;;;4978824;28;20034;-75
2022/09/01 09:26:01;;;;;;;2.53;1.05;;;;;;;;;;4976706;28;20039;-76
2022/09/01 09:28:27;;;;;;;3.38;0.80;;;;;;;;;;4979227;28;23150;-75
2022/09/01 09:31:13;;;;;;;2.67;0.80;;;;;;;;;;4978064;28;20030;-75
2022/09/01 09:33:40;;;;;;;3.28;0.80;;;;;;;;;;4978551;28;20026;-75
2022/09/01 09:36:35;;;;;;;2.67;0.75;;;;;;;;;;4969229;28;20102;-76
2022/09/01 09:39:12;;;;;;;3.33;0.88;;;;;;;;;;4959210;28;20053;-77
2022/09/01 09:41:40;;;;;;;2.67;0.80;;;;;;;;;;4982804;28;20034;-78
2022/09/01 09:44:28;;;;;;;3.67;0.95;;;;;;;;;;4981597;28;20137;-77
2022/09/01 09:46:54;;;;;;;3.42;0.70;;;;;;;;;;4980693;28;20040;-77
2022/09/01 09:49:25;;;;;;;3.13;1.08;;;;;;;;;;4978845;28;20023;-76
2022/09/01 09:51:55;;;;;;;3.53;0.75;;;;;;;;;;4975427;28;20038;-79
2022/09/01 09:54:26;;;;;;;2.20;0.82;;;;;;;;;;4977612;28;20141;-77
2022/09/01 09:57:21;;;;;;;2.17;0.80;;;;;;;;;;4977988;28;20040;-77
2022/09/01 09:59:52;;;;;;;1.77;0.63;;;;;;;;;;4961355;28;20556;-78
2022/09/01 10:02:27;;;;;;;1.58;0.63;;;;;;;;;;4974936;28;20064;-75
2022/09/01 10:04:53;;;;;;;3.05;0.93;;;;;;;;;;4970906;28;20109;-74
2022/09/01 10:07:31;;;;;;;3.42;0.93;;;;;;;;;;4975779;28;20101;-77
2022/09/01 10:09:59;;;;;;;2.72;0.85;;;;;;;;;;4987169;28;20026;-76
2022/09/01 10:12:26;;;;;;;3.97;0.60;;;;;;;;;;4958654;28;20045;-76
2022/09/01 10:14:55;;;;;;;1.35;0.55;;;;;;;;;;4982396;28;20026;-76
2022/09/01 10:17:28;;;;;;;2.33;0.73;;;;;;;;;;4979234;28;20034;-74
2022/09/01 10:19:57;;;;;;;2.80;1.00;;;;;;;;;;4984124;28;20169;-75
2022/09/01 10:22:23;;;;;;;6.97;1.38;;;;;;;;;;4985669;28;20355;-76
2022/09/01 10:24:49;;;;;;;4.60;0.80;;;;;;;;;;4970842;28;20421;-76
2022/09/01 10:27:18;;;;;;;2.97;0.85;;;;;;;;;;4961053;28;20026;-76
2022/09/01 10:29:47;;;;;;;3.20;0.73;;;;;;;;;;4972966;28;20026;-77
2022/09/01 10:32:17;;;;;;;3.07;0.93;;;;;;;;;;4976476;28;20029;-77
2022/09/01 10:34:43;;;;;;;;;;;;;;;;;;4980114;28;20038;-76
2022/09/01 10:37:10;;;;;;;1.98;0.68;;;;;;;;;;4976394;28;19906;-77
2022/09/01 10:39:56;;;;;;;1.00;0.40;;;;;;;;;;4980390;28;20046;-77
2022/09/01 10:42:26;;;;;;;3.95;0.75;;;;;;;;;;4977569;28;20508;-77
2022/09/01 10:44:56;;;;;;;2.28;0.73;;;;;;;;;;4985962;28;20026;-76
2022/09/01 10:47:32;;;;;;;2.92;0.70;;;;;;;;;;4987111;28;20034;-76
2022/09/01 10:49:58;;;;;;;2.35;0.68;;;;;;;;;;4985592;28;20030;-75
2022/09/01 10:52:43;;;;;;;2.65;0.60;;;;;;;;;;4988043;28;20423;-77
2022/09/01 10:55:18;;;;;;;1.98;0.60;;;;;;;;;;4980128;28;20539;-75
2022/09/01 10:57:44;;;;;;;3.80;0.80;;;;;;;;;;4982572;28;20051;-75
2022/09/01 11:00:19;;;;;;;4.13;0.60;;;;;;;;;;4985259;28;20031;-75
2022/09/01 11:03:17;;;;;;;2.58;0.80;;;;;;;;;;4984530;28;20059;-75
2022/09/01 11:05:52;;;;;;;2.65;0.60;;;;;;;;;;4966083;28;20043;-75
2022/09/01 11:08:42;;;;;;;2.75;0.43;;;;;;;;;;4986041;28;20492;-75
2022/09/01 11:11:14;;;;;;;6.70;0.88;;;;;;;;;;4970607;28;20042;-74
2022/09/01 11:13:52;;;;;;;1.35;0.40;;;;;;;;;;4986995;28;20452;-75
2022/09/01 11:16:26;;;;;;;3.65;0.65;;;;;;;;;;4984706;28;20118;-74
2022/09/01 11:18:53;;;;;;;2.58;0.65;;;;;;;;;;4978603;28;20023;-73
2022/09/01 11:21:27;;;;;;;1.95;0.70;;;;;;;;;;4975225;28;20090;-74
2022/09/01 11:24:12;;;;;;;1.15;0.45;;;;;;;;;;4979183;28;20580;-74
2022/09/01 11:26:46;;;;;;;1.90;0.55;;;;;;;;;;4990331;28;20042;-74
2022/09/01 11:29:32;;;;;;;3.33;0.80;;;;;;;;;;4982580;28;20027;-75
2022/09/01 11:31:59;;;;;;;3.97;1.00;;;;;;;;;;4969607;28;20501;-74
2022/09/01 11:34:26;;;;;;;2.25;0.75;;;;;;;;;;4982210;28;20101;-74
2022/09/01 11:36:55;;;;;;;2.13;0.60;;;;;;;;;;4989653;28;20030;-73
2022/09/01 11:39:28;;;;;;;3.05;0.63;;;;;;;;;;4989785;28;20019;-74
2022/09/01 11:41:56;;;;;;;2.72;0.80;;;;;;;;;;4991831;28;20026;-74
2022/09/01 11:44:25;;;;;;;1.02;0.40;;;;;;;;;;4982907;28;20050;-75
2022/09/01 11:46:52;;;;;;;2.53;0.65;;;;;;;;;;4984143;28;20124;-74
2022/09/01 11:49:27;;;;;;;2.47;0.70;;;;;;;;;;4986089;28;20032;-75
2022/09/01 11:51:55;;;;;;;5.22;0.90;;;;;;;;;;4967088;28;20065;-74
2022/09/01 11:54:22;;;;;;;2.35;0.57;;;;;;;;;;4992442;28;20022;-74
2022/09/01 11:56:48;;;;;;;2.05;0.63;;;;;;;;;;4982995;28;20054;-75
2022/09/01 11:59:14;;;;;;;1.70;0.63;;;;;;;;;;4990467;28;20050;-76
2022/09/01 12:01:40;;;;;;;2.05;0.40;;;;;;;;;;4980205;28;20581;-76
2022/09/01 12:04:21;;;;;;;2.22;0.70;;;;;;;;;;4985695;28;20039;-76
2022/09/01 12:06:58;;;;;;;5.30;0.90;;;;;;;;;;4989527;28;20330;-77
2022/09/01 12:09:51;;;;;;;3.75;0.80;;;;;;;;;;4989996;28;20088;-77
2022/09/01 12:12:29;;;;;;;2.67;0.80;;;;;;;;;;4968474;28;20038;-76
2022/09/01 12:14:59;;;;;;;3.40;0.90;;;;;;;;;;4976032;28;20551;-77
2022/09/01 12:17:26;;;;;;;7.07;0.90;;;;;;;;;;4991148;28;20081;-76
2022/09/01 12:19:53;;;;;;;1.75;0.70;;;;;;;;;;4989774;28;20026;-76
2022/09/01 12:22:21;;;;;;;3.90;0.80;;;;;;;;;;4978479;28;20018;-77
2022/09/01 12:24:49;;;;;;;2.13;0.70;;;;;;;;;;4989527;28;20046;-75
2022/09/01 12:27:15;;;;;;;7.78;0.85;;;;;;;;;;4983432;28;20086;-77
2022/09/01 12:29:42;;;;;;;2.90;0.80;;;;;;;;;;4973581;28;20023;-77
2022/09/01 12:32:09;;;;;;;2.92;1.30;;;;;;;;;;4982923;28;20116;-77
2022/09/01 12:34:59;;;;;;;2.97;0.80;;;;;;;;;;4982444;28;20055;-76
2022/09/01 12:37:26;;;;;;;6.53;1.00;;;;;;;;;;4975645;28;20069;-78
2022/09/01 12:39:56;;;;;;;2.42;0.73;;;;;;;;;;4989072;28;20108;-77
2022/09/01 12:42:32;;;;;;;2.35;0.77;;;;;;;;;;4985686;28;20133;-77
2022/09/01 12:45:01;;;;;;;2.88;0.82;;;;;;;;;;4972322;28;20142;-78
2022/09/01 12:47:36;;;;;;;7.75;1.35;;;;;;;;;;4984258;28;20047;-77
2022/09/01 12:50:22;;;;;;;2.92;0.85;;;;;;;;;;4981951;28;20034;-75
2022/09/01 12:52:49;;;;;;;3.33;1.00;;;;;;;;;;4970017;28;20591;-76
2022/09/01 12:55:22;;;;;;;4.28;1.10;;;;;;;;;;4972741;28;20146;-76
2022/09/01 12:57:50;;;;;;;4.07;0.90;;;;;;;;;;4983362;28;20034;-76
2022/09/01 13:00:18;;;;;;;2.58;0.70;;;;;;;;;;4971543;28;20561;-75
2022/09/01 13:02:47;;;;;;;3.33;0.70;;;;;;;;;;4978835;28;20035;-76
2022/09/01 13:05:20;;;;;;;2.10;0.65;;;;;;;;;;4978936;28;20030;-77
2022/09/01 13:07:46;;;;;;;2.00;0.70;;;;;;;;;;4975306;28;20022;-76
2022/09/01 13:10:13;;;;;;;3.15;0.70;;;;;;;;;;4988224;28;20055;-76
2022/09/01 13:12:41;;;;;;;1.73;0.70;;;;;;;;;;4986787;28;20026;-78
2022/09/01 13:15:07;;;;;;;2.10;0.70;;;;;;;;;;4975237;28;20070;-76
2022/09/01 13:17:33;;;;;;;1.40;0.70;;;;;;;;;;4976121;28;20064;-76
2022/09/01 13:20:01;;;;;;;2.15;0.73;;;;;;;;;;4977445;28;20118;-77
2022/09/01 13:22:29;;;;;;;3.47;0.90;;;;;;;;;;4971018;28;20034;-76
2022/09/01 13:24:55;;;;;;;2.30;0.70;;;;;;;;;;4981173;28;20396;-77
2022/09/01 13:27:21;;;;;;;3.35;0.77;;;;;;;;;;4987495;28;20048;-77
2022/09/01 13:29:48;;;;;;;1.15;0.65;;;;;;;;;;4980842;28;20118;-77
2022/09/01 13:32:14;;;;;;;1.77;0.57;;;;;;;;;;4971275;28;20073;-76
2022/09/01 13:34:40;;;;;;;1.30;0.70;;;;;;;;;;4980815;28;20077;-77
2022/09/01 13:37:06;;;;;;;3.70;0.98;;;;;;;;;;4989431;28;20027;-77
2022/09/01 13:39:32;;;;;;;4.55;1.17;;;;;;;;;;4982805;28;20031;-77
2022/09/01 13:41:58;;;;;;;3.63;1.00;;;;;;;;;;4971731;28;20391;-77
2022/09/01 13:44:24;;;;;;;2.22;0.60;;;;;;;;;;4978573;28;20027;-77
2022/09/01 13:46:50;;;;;;;2.28;0.65;;;;;;;;;;4987817;28;20535;-75
2022/09/01 13:49:17;;;;;;;1.13;0.60;;;;;;;;;;4982811;28;20786;-76
2022/09/01 13:51:43;;;;;;;1.42;1.08;;;;;;;;;;4989648;28;20061;-75
2022/09/01 13:54:12;;;;;;;2.15;0.60;;;;;;;;;;4961917;28;20112;-75
2022/09/01 13:56:39;;;;;;;2.65;0.70;;;;;;;;;;4977753;28;20038;-74
2022/09/01 13:59:05;;;;;;;1.95;0.70;;;;;;;;;;4980750;28;20104;-75
2022/09/01 14:01:33;;;;;;;1.90;0.68;;;;;;;;;;4963828;28;20125;-76
2022/09/01 14:03:59;;;;;;;1.85;0.73;;;;;;;;;;4974812;28;20030;-75
2022/09/01 14:06:25;;;;;;;2.40;0.77;;;;;;;;;;4979922;28;20046;-76
2022/09/01 14:08:51;;;;;;;2.20;0.55;;;;;;;;;;4986942;28;20030;-76
2022/09/01 14:11:18;;;;;;;2.95;0.73;;;;;;;;;;4987438;28;20058;-76
2022/09/01 14:13:45;;;;;;;4.55;0.90;;;;;;;;;;4989521;28;20019;-77
2022/09/01 14:16:13;;;;;;;5.78;1.27;;;;;;;;;;4992458;28;20065;-77
2022/09/01 14:18:39;;;;;;;4.15;0.82;;;;;;;;;;4993058;28;20120;-75
2022/09/01 14:21:09;;;;;;;4.25;1.20;;;;;;;;;;4989170;28;20049;-75
2022/09/01 14:23:35;;;;;;;1.73;0.50;;;;;;;;;;4974375;28;20086;-77
2022/09/01 14:26:01;;;;;;;2.78;0.70;;;;;;;;;;4986399;28;20027;-76
2022/09/01 14:28:28;;;;;;;2.78;0.80;;;;;;;;;;4973851;28;20065;-76
2022/09/01 14:30:54;;;;;;;4.47;0.77;;;;;;;;;;4985845;28;20043;-75
2022/09/01 14:33:23;;;;;;;3.92;0.90;;;;;;;;;;4973645;28;20094;-76
2022/09/01 14:35:49;;;;;;;5.10;1.07;;;;;;;;;;4986675;28;20267;-75
2022/09/01 14:38:15;;;;;;;1.77;0.65;;;;;;;;;;4982139;28;20026;-76
2022/09/01 14:40:42;;;;;;;1.88;0.73;;;;;;;;;;4980849;28;20081;-76
2022/09/01 14:43:12;;;;;;;4.78;0.80;;;;;;;;;;4983468;28;20115;-76
2022/09/01 14:45:39;;;;;;;3.03;0.70;;;;;;;;;;4978063;28;20038;-75
2022/09/01 14:48:07;;;;;;;3.80;0.88;;;;;;;;;;4984791;28;20165;-76
2022/09/01 14:50:34;;;;;;;4.97;0.82;;;;;;;;;;4982266;28;20027;-76
2022/09/01 14:53:01;;;;;;;2.47;0.93;;;;;;;;;;4976612;28;20023;-75
2022/09/01 14:55:29;;;;;;;7.68;1.00;;;;;;;;;;4979779;28;20036;-76
2022/09/01 14:57:55;;;;;;;2.65;0.65;;;;;;;;;;4983220;28;20097;-76